sensor_id;sensor_type;location;lat;lon;timestamp;P1;durP1;ratioP1;P2;durP2;ratioP2
19280;SDS011;9774;52.034;5.342;2023-09-30T00:00:15;3.53;;;2.40;;
19280;SDS011;9774;52.034;5.342;2023-09-30T00:02:43;3.63;;;1.80;;
19280;SDS011;9774;52.034;5.342;2023-09-30T00:05:10;5.13;;;2.53;;
19280;SDS011;9774;52.034;5.342;2023-09-30T00:07:39;6.05;;;2.83;;
19280;SDS011;9774;52.034;5.342;2023-09-30T00:10:08;3.90;;;1.90;;
19280;SDS011;9774;52.034;5.342;2023-09-30T00:12:36;4.30;;;2.22;;
19280;SDS011;9774;52.034;5.342;2023-09-30T00:15:03;6.22;;;2.78;;
19280;SDS011;9774;52.034;5.342;2023-09-30T00:17:31;4.07;;;2.90;;
19280;SDS011;9774;52.034;5.342;2023-09-30T00:19:59;5.55;;;2.45;;
19280;SDS011;9774;52.034;5.342;2023-09-30T00:22:29;6.25;;;2.75;;
19280;SDS011;9774;52.034;5.342;2023-09-30T00:24:56;7.28;;;3.15;;
19280;SDS011;9774;52.034;5.342;2023-09-30T00:27:25;8.50;;;2.58;;
19280;SDS011;9774;52.034;5.342;2023-09-30T00:29:52;5.63;;;2.83;;
19280;SDS011;9774;52.034;5.342;2023-09-30T00:32:20;5.75;;;2.65;;
19280;SDS011;9774;52.034;5.342;2023-09-30T00:34:47;4.60;;;2.60;;
19280;SDS011;9774;52.034;5.342;2023-09-30T00:37:15;5.25;;;2.38;;
19280;SDS011;9774;52.034;5.342;2023-09-30T00:39:42;5.35;;;2.80;;
19280;SDS011;9774;52.034;5.342;2023-09-30T00:42:09;4.68;;;2.70;;
19280;SDS011;9774;52.034;5.342;2023-09-30T00:44:36;4.95;;;2.70;;
19280;SDS011;9774;52.034;5.342;2023-09-30T00:47:03;4.93;;;2.63;;
19280;SDS011;9774;52.034;5.342;2023-09-30T00:49:33;5.43;;;2.80;;
19280;SDS011;9774;52.034;5.342;2023-09-30T00:52:01;7.32;;;3.10;;
19280;SDS011;9774;52.034;5.342;2023-09-30T00:54:30;6.53;;;3.28;;
19280;SDS011;9774;52.034;5.342;2023-09-30T00:56:58;7.97;;;3.22;;
19280;SDS011;9774;52.034;5.342;2023-09-30T00:59:26;5.22;;;2.88;;
19280;SDS011;9774;52.034;5.342;2023-09-30T01:01:58;7.72;;;3.17;;
19280;SDS011;9774;52.034;5.342;2023-09-30T01:04:27;3.95;;;2.80;;
19280;SDS011;9774;52.034;5.342;2023-09-30T01:06:54;7.72;;;3.60;;
19280;SDS011;9774;52.034;5.342;2023-09-30T01:09:22;5.70;;;2.88;;
19280;SDS011;9774;52.034;5.342;2023-09-30T01:11:51;6.88;;;3.78;;
19280;SDS011;9774;52.034;5.342;2023-09-30T01:14:25;8.23;;;3.22;;
19280;SDS011;9774;52.034;5.342;2023-09-30T01:16:53;6.45;;;3.20;;
19280;SDS011;9774;52.034;5.342;2023-09-30T01:19:21;6.30;;;2.90;;
19280;SDS011;9774;52.034;5.342;2023-09-30T01:21:52;4.95;;;2.78;;
19280;SDS011;9774;52.034;5.342;2023-09-30T01:24:21;6.65;;;3.40;;
19280;SDS011;9774;52.034;5.342;2023-09-30T01:26:48;6.45;;;3.22;;
19280;SDS011;9774;52.034;5.342;2023-09-30T01:29:15;5.45;;;3.35;;
19280;SDS011;9774;52.034;5.342;2023-09-30T01:31:42;8.65;;;3.05;;
19280;SDS011;9774;52.034;5.342;2023-09-30T01:34:12;4.03;;;2.75;;
19280;SDS011;9774;52.034;5.342;2023-09-30T01:36:40;7.30;;;3.10;;
19280;SDS011;9774;52.034;5.342;2023-09-30T01:39:09;5.43;;;3.67;;
19280;SDS011;9774;52.034;5.342;2023-09-30T01:41:36;4.40;;;2.78;;
19280;SDS011;9774;52.034;5.342;2023-09-30T01:44:04;6.93;;;3.78;;
19280;SDS011;9774;52.034;5.342;2023-09-30T01:46:31;5.88;;;3.33;;
19280;SDS011;9774;52.034;5.342;2023-09-30T01:48:59;8.02;;;3.70;;
19280;SDS011;9774;52.034;5.342;2023-09-30T01:51:26;7.68;;;3.38;;
19280;SDS011;9774;52.034;5.342;2023-09-30T01:53:54;8.15;;;3.40;;
19280;SDS011;9774;52.034;5.342;2023-09-30T01:56:23;6.45;;;3.78;;
19280;SDS011;9774;52.034;5.342;2023-09-30T01:58:50;5.55;;;2.67;;
19280;SDS011;9774;52.034;5.342;2023-09-30T02:01:17;5.45;;;3.00;;
19280;SDS011;9774;52.034;5.342;2023-09-30T02:03:44;9.00;;;3.47;;
19280;SDS011;9774;52.034;5.342;2023-09-30T02:06:11;4.55;;;3.03;;
19280;SDS011;9774;52.034;5.342;2023-09-30T02:08:38;6.32;;;3.65;;
19280;SDS011;9774;52.034;5.342;2023-09-30T02:11:05;7.20;;;3.20;;
19280;SDS011;9774;52.034;5.342;2023-09-30T02:13:34;9.30;;;3.30;;
19280;SDS011;9774;52.034;5.342;2023-09-30T02:16:01;6.57;;;3.78;;
19280;SDS011;9774;52.034;5.342;2023-09-30T02:18:28;5.07;;;2.70;;
19280;SDS011;9774;52.034;5.342;2023-09-30T02:20:57;5.05;;;3.00;;
19280;SDS011;9774;52.034;5.342;2023-09-30T02:23:24;9.55;;;3.70;;
19280;SDS011;9774;52.034;5.342;2023-09-30T02:25:51;5.75;;;3.25;;
19280;SDS011;9774;52.034;5.342;2023-09-30T02:28:18;5.80;;;3.13;;
19280;SDS011;9774;52.034;5.342;2023-09-30T02:30:47;4.95;;;3.20;;
19280;SDS011;9774;52.034;5.342;2023-09-30T02:33:14;5.85;;;3.63;;
19280;SDS011;9774;52.034;5.342;2023-09-30T02:35:43;5.07;;;3.45;;
19280;SDS011;9774;52.034;5.342;2023-09-30T02:38:11;6.55;;;3.50;;
19280;SDS011;9774;52.034;5.342;2023-09-30T02:40:42;4.60;;;3.38;;
19280;SDS011;9774;52.034;5.342;2023-09-30T02:43:11;6.20;;;3.30;;
19280;SDS011;9774;52.034;5.342;2023-09-30T02:45:39;5.40;;;3.10;;
19280;SDS011;9774;52.034;5.342;2023-09-30T02:48:07;7.28;;;3.60;;
19280;SDS011;9774;52.034;5.342;2023-09-30T02:50:34;14.68;;;4.00;;
19280;SDS011;9774;52.034;5.342;2023-09-30T02:53:01;5.18;;;3.35;;
19280;SDS011;9774;52.034;5.342;2023-09-30T02:55:29;5.70;;;3.75;;
19280;SDS011;9774;52.034;5.342;2023-09-30T02:57:56;6.53;;;3.72;;
19280;SDS011;9774;52.034;5.342;2023-09-30T03:00:24;5.13;;;3.60;;
19280;SDS011;9774;52.034;5.342;2023-09-30T03:02:51;5.28;;;3.80;;
19280;SDS011;9774;52.034;5.342;2023-09-30T03:05:21;6.32;;;3.40;;
19280;SDS011;9774;52.034;5.342;2023-09-30T03:07:49;7.07;;;3.95;;
19280;SDS011;9774;52.034;5.342;2023-09-30T03:10:16;7.38;;;3.78;;
19280;SDS011;9774;52.034;5.342;2023-09-30T03:12:45;6.20;;;4.05;;
19280;SDS011;9774;52.034;5.342;2023-09-30T03:15:13;5.88;;;3.65;;
19280;SDS011;9774;52.034;5.342;2023-09-30T03:17:41;6.35;;;3.35;;
19280;SDS011;9774;52.034;5.342;2023-09-30T03:20:08;5.88;;;3.40;;
19280;SDS011;9774;52.034;5.342;2023-09-30T03:22:39;5.20;;;3.47;;
19280;SDS011;9774;52.034;5.342;2023-09-30T03:25:07;8.02;;;3.50;;
19280;SDS011;9774;52.034;5.342;2023-09-30T03:27:36;5.35;;;3.63;;
19280;SDS011;9774;52.034;5.342;2023-09-30T03:30:04;4.45;;;3.53;;
19280;SDS011;9774;52.034;5.342;2023-09-30T03:32:33;6.47;;;3.85;;
19280;SDS011;9774;52.034;5.342;2023-09-30T03:35:01;6.32;;;3.88;;
19280;SDS011;9774;52.034;5.342;2023-09-30T03:37:31;7.45;;;4.15;;
19280;SDS011;9774;52.034;5.342;2023-09-30T03:39:59;7.07;;;3.80;;
19280;SDS011;9774;52.034;5.342;2023-09-30T03:42:36;6.55;;;4.10;;
19280;SDS011;9774;52.034;5.342;2023-09-30T03:45:05;7.55;;;4.15;;
19280;SDS011;9774;52.034;5.342;2023-09-30T03:47:34;5.65;;;3.80;;
19280;SDS011;9774;52.034;5.342;2023-09-30T03:50:02;6.25;;;4.40;;
19280;SDS011;9774;52.034;5.342;2023-09-30T03:52:30;8.02;;;4.53;;
19280;SDS011;9774;52.034;5.342;2023-09-30T03:54:59;5.50;;;4.65;;
19280;SDS011;9774;52.034;5.342;2023-09-30T03:57:29;5.65;;;4.32;;
19280;SDS011;9774;52.034;5.342;2023-09-30T03:59:57;7.05;;;4.32;;
19280;SDS011;9774;52.034;5.342;2023-09-30T04:02:24;4.25;;;3.75;;
19280;SDS011;9774;52.034;5.342;2023-09-30T04:04:52;6.70;;;4.72;;
19280;SDS011;9774;52.034;5.342;2023-09-30T04:07:21;7.72;;;4.78;;
19280;SDS011;9774;52.034;5.342;2023-09-30T04:09:52;7.47;;;5.32;;
19280;SDS011;9774;52.034;5.342;2023-09-30T04:12:21;7.60;;;4.95;;
19280;SDS011;9774;52.034;5.342;2023-09-30T04:14:49;6.68;;;4.65;;
19280;SDS011;9774;52.034;5.342;2023-09-30T04:17:16;5.13;;;4.30;;
19280;SDS011;9774;52.034;5.342;2023-09-30T04:19:43;6.65;;;4.50;;
19280;SDS011;9774;52.034;5.342;2023-09-30T04:22:10;7.25;;;5.15;;
19280;SDS011;9774;52.034;5.342;2023-09-30T04:24:38;6.15;;;4.95;;
19280;SDS011;9774;52.034;5.342;2023-09-30T04:27:05;5.88;;;4.32;;
19280;SDS011;9774;52.034;5.342;2023-09-30T04:29:34;7.25;;;4.95;;
19280;SDS011;9774;52.034;5.342;2023-09-30T04:32:01;7.55;;;4.88;;
19280;SDS011;9774;52.034;5.342;2023-09-30T04:34:28;6.93;;;4.82;;
19280;SDS011;9774;52.034;5.342;2023-09-30T04:36:55;6.63;;;4.43;;
19280;SDS011;9774;52.034;5.342;2023-09-30T04:39:22;7.03;;;4.10;;
19280;SDS011;9774;52.034;5.342;2023-09-30T04:41:50;5.15;;;4.20;;
19280;SDS011;9774;52.034;5.342;2023-09-30T04:44:16;8.82;;;5.28;;
19280;SDS011;9774;52.034;5.342;2023-09-30T04:46:45;8.75;;;5.25;;
19280;SDS011;9774;52.034;5.342;2023-09-30T04:49:12;6.75;;;5.32;;
19280;SDS011;9774;52.034;5.342;2023-09-30T04:51:41;8.05;;;5.20;;
19280;SDS011;9774;52.034;5.342;2023-09-30T04:54:08;7.00;;;5.28;;
19280;SDS011;9774;52.034;5.342;2023-09-30T04:56:35;7.85;;;5.20;;
19280;SDS011;9774;52.034;5.342;2023-09-30T04:59:03;7.53;;;5.50;;
19280;SDS011;9774;52.034;5.342;2023-09-30T05:01:31;7.25;;;5.45;;
19280;SDS011;9774;52.034;5.342;2023-09-30T05:03:59;5.95;;;4.78;;
19280;SDS011;9774;52.034;5.342;2023-09-30T05:06:27;6.40;;;4.85;;
19280;SDS011;9774;52.034;5.342;2023-09-30T05:08:54;9.02;;;5.38;;
19280;SDS011;9774;52.034;5.342;2023-09-30T05:11:21;6.75;;;5.82;;
19280;SDS011;9774;52.034;5.342;2023-09-30T05:13:49;6.78;;;5.35;;
19280;SDS011;9774;52.034;5.342;2023-09-30T05:16:16;6.78;;;5.65;;
19280;SDS011;9774;52.034;5.342;2023-09-30T05:18:43;7.65;;;5.45;;
19280;SDS011;9774;52.034;5.342;2023-09-30T05:21:12;6.55;;;5.63;;
19280;SDS011;9774;52.034;5.342;2023-09-30T05:23:39;10.07;;;5.90;;
19280;SDS011;9774;52.034;5.342;2023-09-30T05:26:06;7.30;;;5.97;;
19280;SDS011;9774;52.034;5.342;2023-09-30T05:28:33;9.05;;;5.82;;
19280;SDS011;9774;52.034;5.342;2023-09-30T05:31:00;6.45;;;5.40;;
19280;SDS011;9774;52.034;5.342;2023-09-30T05:33:27;8.32;;;5.88;;
19280;SDS011;9774;52.034;5.342;2023-09-30T05:35:55;6.72;;;5.70;;
19280;SDS011;9774;52.034;5.342;2023-09-30T05:38:23;7.65;;;6.03;;
19280;SDS011;9774;52.034;5.342;2023-09-30T05:40:51;8.57;;;6.07;;
19280;SDS011;9774;52.034;5.342;2023-09-30T05:43:21;7.28;;;6.05;;
19280;SDS011;9774;52.034;5.342;2023-09-30T05:45:48;9.43;;;5.88;;
19280;SDS011;9774;52.034;5.342;2023-09-30T05:48:19;7.82;;;5.63;;
19280;SDS011;9774;52.034;5.342;2023-09-30T05:50:46;8.35;;;5.50;;
19280;SDS011;9774;52.034;5.342;2023-09-30T05:53:13;6.35;;;5.35;;
19280;SDS011;9774;52.034;5.342;2023-09-30T05:55:42;6.88;;;5.38;;
19280;SDS011;9774;52.034;5.342;2023-09-30T05:58:12;6.72;;;5.53;;
19280;SDS011;9774;52.034;5.342;2023-09-30T06:00:41;7.50;;;6.05;;
19280;SDS011;9774;52.034;5.342;2023-09-30T06:03:08;8.70;;;6.05;;
19280;SDS011;9774;52.034;5.342;2023-09-30T06:05:38;8.48;;;6.35;;
19280;SDS011;9774;52.034;5.342;2023-09-30T06:08:08;7.03;;;5.40;;
19280;SDS011;9774;52.034;5.342;2023-09-30T06:10:39;5.70;;;5.05;;
19280;SDS011;9774;52.034;5.342;2023-09-30T06:13:09;8.43;;;6.45;;
19280;SDS011;9774;52.034;5.342;2023-09-30T06:15:36;7.97;;;5.88;;
19280;SDS011;9774;52.034;5.342;2023-09-30T06:18:05;8.25;;;5.50;;
19280;SDS011;9774;52.034;5.342;2023-09-30T06:20:32;10.30;;;5.40;;
19280;SDS011;9774;52.034;5.342;2023-09-30T06:22:59;8.07;;;6.32;;
19280;SDS011;9774;52.034;5.342;2023-09-30T06:25:26;7.88;;;6.38;;
19280;SDS011;9774;52.034;5.342;2023-09-30T06:27:56;6.68;;;5.25;;
19280;SDS011;9774;52.034;5.342;2023-09-30T06:30:24;10.00;;;6.00;;
19280;SDS011;9774;52.034;5.342;2023-09-30T06:32:54;8.15;;;6.20;;
19280;SDS011;9774;52.034;5.342;2023-09-30T06:35:21;8.00;;;6.05;;
19280;SDS011;9774;52.034;5.342;2023-09-30T06:37:48;8.43;;;5.65;;
19280;SDS011;9774;52.034;5.342;2023-09-30T06:40:15;9.60;;;6.85;;
19280;SDS011;9774;52.034;5.342;2023-09-30T06:42:44;9.57;;;5.82;;
19280;SDS011;9774;52.034;5.342;2023-09-30T06:45:12;7.97;;;6.10;;
19280;SDS011;9774;52.034;5.342;2023-09-30T06:47:41;8.15;;;5.93;;
19280;SDS011;9774;52.034;5.342;2023-09-30T06:50:08;9.10;;;5.85;;
19280;SDS011;9774;52.034;5.342;2023-09-30T06:52:37;7.03;;;5.70;;
19280;SDS011;9774;52.034;5.342;2023-09-30T06:55:07;6.85;;;5.20;;
19280;SDS011;9774;52.034;5.342;2023-09-30T06:57:36;7.63;;;6.13;;
19280;SDS011;9774;52.034;5.342;2023-09-30T07:00:06;8.88;;;5.88;;
19280;SDS011;9774;52.034;5.342;2023-09-30T07:02:36;8.98;;;6.97;;
19280;SDS011;9774;52.034;5.342;2023-09-30T07:05:05;7.75;;;6.00;;
19280;SDS011;9774;52.034;5.342;2023-09-30T07:07:33;9.85;;;6.70;;
19280;SDS011;9774;52.034;5.342;2023-09-30T07:10:00;8.18;;;5.40;;
19280;SDS011;9774;52.034;5.342;2023-09-30T07:12:29;7.78;;;6.47;;
19280;SDS011;9774;52.034;5.342;2023-09-30T07:14:57;7.20;;;6.20;;
19280;SDS011;9774;52.034;5.342;2023-09-30T07:17:24;7.22;;;5.90;;
19280;SDS011;9774;52.034;5.342;2023-09-30T07:19:53;7.75;;;6.00;;
19280;SDS011;9774;52.034;5.342;2023-09-30T07:22:20;8.23;;;6.25;;
19280;SDS011;9774;52.034;5.342;2023-09-30T07:24:47;8.38;;;6.93;;
19280;SDS011;9774;52.034;5.342;2023-09-30T07:27:14;6.97;;;5.70;;
19280;SDS011;9774;52.034;5.342;2023-09-30T07:29:43;9.10;;;6.63;;
19280;SDS011;9774;52.034;5.342;2023-09-30T07:32:10;11.52;;;7.18;;
19280;SDS011;9774;52.034;5.342;2023-09-30T07:34:38;9.60;;;6.35;;
19280;SDS011;9774;52.034;5.342;2023-09-30T07:37:06;13.80;;;7.15;;
19280;SDS011;9774;52.034;5.342;2023-09-30T07:39:34;8.82;;;6.53;;
19280;SDS011;9774;52.034;5.342;2023-09-30T07:42:02;9.52;;;6.32;;
19280;SDS011;9774;52.034;5.342;2023-09-30T07:44:30;8.52;;;6.30;;
19280;SDS011;9774;52.034;5.342;2023-09-30T07:46:57;10.52;;;6.55;;
19280;SDS011;9774;52.034;5.342;2023-09-30T07:49:24;10.00;;;6.95;;
19280;SDS011;9774;52.034;5.342;2023-09-30T07:51:51;12.73;;;7.05;;
19280;SDS011;9774;52.034;5.342;2023-09-30T07:54:19;7.47;;;6.43;;
19280;SDS011;9774;52.034;5.342;2023-09-30T07:56:46;9.85;;;6.50;;
19280;SDS011;9774;52.034;5.342;2023-09-30T07:59:14;11.02;;;6.18;;
19280;SDS011;9774;52.034;5.342;2023-09-30T08:01:41;9.45;;;6.38;;
19280;SDS011;9774;52.034;5.342;2023-09-30T08:04:08;10.68;;;6.85;;
19280;SDS011;9774;52.034;5.342;2023-09-30T08:06:35;13.05;;;7.57;;
19280;SDS011;9774;52.034;5.342;2023-09-30T08:09:02;11.50;;;6.95;;
19280;SDS011;9774;52.034;5.342;2023-09-30T08:11:36;11.55;;;6.82;;
19280;SDS011;9774;52.034;5.342;2023-09-30T08:14:16;10.35;;;6.50;;
19280;SDS011;9774;52.034;5.342;2023-09-30T08:16:43;10.70;;;7.25;;
19280;SDS011;9774;52.034;5.342;2023-09-30T08:19:10;11.48;;;7.00;;
19280;SDS011;9774;52.034;5.342;2023-09-30T08:21:37;7.72;;;6.63;;
19280;SDS011;9774;52.034;5.342;2023-09-30T08:24:04;9.77;;;7.07;;
19280;SDS011;9774;52.034;5.342;2023-09-30T08:26:33;9.15;;;7.43;;
19280;SDS011;9774;52.034;5.342;2023-09-30T08:29:02;12.13;;;7.90;;
19280;SDS011;9774;52.034;5.342;2023-09-30T08:31:31;9.75;;;6.70;;
19280;SDS011;9774;52.034;5.342;2023-09-30T08:33:59;9.77;;;6.18;;
19280;SDS011;9774;52.034;5.342;2023-09-30T08:36:28;8.25;;;6.32;;
19280;SDS011;9774;52.034;5.342;2023-09-30T08:38:56;9.35;;;7.30;;
19280;SDS011;9774;52.034;5.342;2023-09-30T08:41:24;8.73;;;6.00;;
19280;SDS011;9774;52.034;5.342;2023-09-30T08:43:58;8.73;;;5.53;;
19280;SDS011;9774;52.034;5.342;2023-09-30T08:46:30;10.80;;;7.05;;
19280;SDS011;9774;52.034;5.342;2023-09-30T08:48:59;13.90;;;6.55;;
19280;SDS011;9774;52.034;5.342;2023-09-30T08:51:29;7.78;;;6.03;;
19280;SDS011;9774;52.034;5.342;2023-09-30T08:53:57;8.82;;;5.60;;
19280;SDS011;9774;52.034;5.342;2023-09-30T08:56:29;11.40;;;5.65;;
19280;SDS011;9774;52.034;5.342;2023-09-30T08:58:58;11.00;;;6.30;;
19280;SDS011;9774;52.034;5.342;2023-09-30T09:01:28;9.10;;;5.95;;
19280;SDS011;9774;52.034;5.342;2023-09-30T09:03:57;11.95;;;7.43;;
19280;SDS011;9774;52.034;5.342;2023-09-30T09:06:25;10.95;;;6.60;;
19280;SDS011;9774;52.034;5.342;2023-09-30T09:08:52;11.60;;;6.85;;
19280;SDS011;9774;52.034;5.342;2023-09-30T09:11:19;9.05;;;6.10;;
19280;SDS011;9774;52.034;5.342;2023-09-30T09:13:50;7.95;;;5.93;;
19280;SDS011;9774;52.034;5.342;2023-09-30T09:16:22;10.60;;;6.25;;
19280;SDS011;9774;52.034;5.342;2023-09-30T09:18:49;9.43;;;6.43;;
19280;SDS011;9774;52.034;5.342;2023-09-30T09:21:17;13.38;;;6.85;;
19280;SDS011;9774;52.034;5.342;2023-09-30T09:23:48;10.85;;;6.00;;
19280;SDS011;9774;52.034;5.342;2023-09-30T09:26:23;9.57;;;6.10;;
19280;SDS011;9774;52.034;5.342;2023-09-30T09:28:56;11.48;;;6.70;;
19280;SDS011;9774;52.034;5.342;2023-09-30T09:31:26;6.82;;;5.00;;
19280;SDS011;9774;52.034;5.342;2023-09-30T09:33:55;12.35;;;6.25;;
19280;SDS011;9774;52.034;5.342;2023-09-30T09:36:38;9.90;;;5.75;;
19280;SDS011;9774;52.034;5.342;2023-09-30T09:39:06;9.55;;;5.85;;
19280;SDS011;9774;52.034;5.342;2023-09-30T09:41:48;9.60;;;6.30;;
19280;SDS011;9774;52.034;5.342;2023-09-30T09:44:17;9.05;;;4.72;;
19280;SDS011;9774;52.034;5.342;2023-09-30T09:46:48;9.40;;;5.50;;
19280;SDS011;9774;52.034;5.342;2023-09-30T09:49:16;7.30;;;4.47;;
19280;SDS011;9774;52.034;5.342;2023-09-30T09:51:45;8.75;;;4.88;;
19280;SDS011;9774;52.034;5.342;2023-09-30T09:54:14;8.15;;;4.43;;
19280;SDS011;9774;52.034;5.342;2023-09-30T09:56:44;6.00;;;4.30;;
19280;SDS011;9774;52.034;5.342;2023-09-30T09:59:12;10.57;;;4.47;;
19280;SDS011;9774;52.034;5.342;2023-09-30T10:01:40;6.68;;;4.00;;
19280;SDS011;9774;52.034;5.342;2023-09-30T10:04:08;8.32;;;4.40;;
19280;SDS011;9774;52.034;5.342;2023-09-30T10:06:40;9.68;;;3.90;;
19280;SDS011;9774;52.034;5.342;2023-09-30T10:09:10;7.68;;;3.42;;
19280;SDS011;9774;52.034;5.342;2023-09-30T10:11:40;6.75;;;4.13;;
19280;SDS011;9774;52.034;5.342;2023-09-30T10:14:08;8.75;;;3.70;;
19280;SDS011;9774;52.034;5.342;2023-09-30T10:16:49;4.68;;;3.17;;
19280;SDS011;9774;52.034;5.342;2023-09-30T10:19:19;6.00;;;3.63;;
19280;SDS011;9774;52.034;5.342;2023-09-30T10:24:48;5.50;;;3.38;;
19280;SDS011;9774;52.034;5.342;2023-09-30T10:27:30;8.50;;;3.83;;
19280;SDS011;9774;52.034;5.342;2023-09-30T10:30:11;7.43;;;3.30;;
19280;SDS011;9774;52.034;5.342;2023-09-30T10:35:46;7.05;;;3.20;;
19280;SDS011;9774;52.034;5.342;2023-09-30T10:38:37;6.88;;;3.22;;
19280;SDS011;9774;52.034;5.342;2023-09-30T10:41:08;8.13;;;3.08;;
19280;SDS011;9774;52.034;5.342;2023-09-30T10:43:37;5.15;;;3.33;;
19280;SDS011;9774;52.034;5.342;2023-09-30T10:49:10;5.80;;;3.10;;
19280;SDS011;9774;52.034;5.342;2023-09-30T10:52:02;7.95;;;3.38;;
19280;SDS011;9774;52.034;5.342;2023-09-30T10:54:29;5.90;;;2.72;;
19280;SDS011;9774;52.034;5.342;2023-09-30T10:56:58;8.70;;;3.33;;
19280;SDS011;9774;52.034;5.342;2023-09-30T10:59:29;5.68;;;3.10;;
19280;SDS011;9774;52.034;5.342;2023-09-30T11:01:57;6.45;;;2.20;;
19280;SDS011;9774;52.034;5.342;2023-09-30T11:04:24;5.38;;;3.10;;
19280;SDS011;9774;52.034;5.342;2023-09-30T11:06:52;6.25;;;3.20;;
19280;SDS011;9774;52.034;5.342;2023-09-30T11:09:21;7.38;;;2.30;;
19280;SDS011;9774;52.034;5.342;2023-09-30T11:11:49;5.43;;;2.95;;
19280;SDS011;9774;52.034;5.342;2023-09-30T11:14:19;5.88;;;2.60;;
19280;SDS011;9774;52.034;5.342;2023-09-30T11:16:49;4.72;;;2.38;;
19280;SDS011;9774;52.034;5.342;2023-09-30T11:19:18;3.30;;;1.85;;
19280;SDS011;9774;52.034;5.342;2023-09-30T11:21:47;4.38;;;2.25;;
19280;SDS011;9774;52.034;5.342;2023-09-30T11:24:17;3.90;;;2.50;;
19280;SDS011;9774;52.034;5.342;2023-09-30T11:26:46;5.60;;;2.03;;
19280;SDS011;9774;52.034;5.342;2023-09-30T11:29:14;6.95;;;2.13;;
19280;SDS011;9774;52.034;5.342;2023-09-30T11:31:43;5.72;;;2.42;;
19280;SDS011;9774;52.034;5.342;2023-09-30T11:34:13;5.15;;;2.17;;
19280;SDS011;9774;52.034;5.342;2023-09-30T11:36:47;4.22;;;1.88;;
19280;SDS011;9774;52.034;5.342;2023-09-30T11:39:21;7.45;;;2.30;;
19280;SDS011;9774;52.034;5.342;2023-09-30T11:41:51;4.20;;;2.00;;
19280;SDS011;9774;52.034;5.342;2023-09-30T11:44:21;5.40;;;2.55;;
19280;SDS011;9774;52.034;5.342;2023-09-30T11:46:52;5.47;;;3.13;;
19280;SDS011;9774;52.034;5.342;2023-09-30T11:49:26;5.43;;;3.13;;
19280;SDS011;9774;52.034;5.342;2023-09-30T11:51:56;3.97;;;2.30;;
19280;SDS011;9774;52.034;5.342;2023-09-30T11:54:28;6.05;;;3.10;;
19280;SDS011;9774;52.034;5.342;2023-09-30T11:56:59;7.97;;;3.00;;
19280;SDS011;9774;52.034;5.342;2023-09-30T11:59:28;5.38;;;2.60;;
19280;SDS011;9774;52.034;5.342;2023-09-30T12:01:56;9.23;;;2.47;;
19280;SDS011;9774;52.034;5.342;2023-09-30T12:04:23;4.45;;;2.47;;
19280;SDS011;9774;52.034;5.342;2023-09-30T12:06:51;4.15;;;2.00;;
19280;SDS011;9774;52.034;5.342;2023-09-30T12:09:18;4.57;;;2.25;;
19280;SDS011;9774;52.034;5.342;2023-09-30T12:11:50;3.63;;;1.45;;
19280;SDS011;9774;52.034;5.342;2023-09-30T12:14:19;5.05;;;1.75;;
19280;SDS011;9774;52.034;5.342;2023-09-30T12:16:47;6.63;;;1.90;;
19280;SDS011;9774;52.034;5.342;2023-09-30T12:19:15;3.72;;;1.80;;
19280;SDS011;9774;52.034;5.342;2023-09-30T12:21:43;4.30;;;1.80;;
19280;SDS011;9774;52.034;5.342;2023-09-30T12:24:14;5.38;;;2.05;;
19280;SDS011;9774;52.034;5.342;2023-09-30T12:26:42;4.80;;;1.80;;
19280;SDS011;9774;52.034;5.342;2023-09-30T12:29:13;3.42;;;1.33;;
19280;SDS011;9774;52.034;5.342;2023-09-30T12:31:43;4.18;;;1.42;;
19280;SDS011;9774;52.034;5.342;2023-09-30T12:34:10;1.25;;;0.85;;
19280;SDS011;9774;52.034;5.342;2023-09-30T12:36:38;5.50;;;1.92;;
19280;SDS011;9774;52.034;5.342;2023-09-30T12:39:06;3.65;;;1.70;;
19280;SDS011;9774;52.034;5.342;2023-09-30T12:41:36;4.38;;;1.70;;
19280;SDS011;9774;52.034;5.342;2023-09-30T12:44:04;3.60;;;1.80;;
19280;SDS011;9774;52.034;5.342;2023-09-30T12:46:32;2.95;;;1.40;;
19280;SDS011;9774;52.034;5.342;2023-09-30T12:49:03;5.72;;;1.25;;
19280;SDS011;9774;52.034;5.342;2023-09-30T12:51:30;2.88;;;1.35;;
19280;SDS011;9774;52.034;5.342;2023-09-30T12:53:58;4.60;;;1.63;;
19280;SDS011;9774;52.034;5.342;2023-09-30T12:56:26;4.13;;;1.42;;
19280;SDS011;9774;52.034;5.342;2023-09-30T12:58:54;7.95;;;1.33;;
19280;SDS011;9774;52.034;5.342;2023-09-30T13:01:21;2.60;;;1.73;;
19280;SDS011;9774;52.034;5.342;2023-09-30T13:03:48;7.10;;;1.80;;
19280;SDS011;9774;52.034;5.342;2023-09-30T13:06:18;4.53;;;2.03;;
19280;SDS011;9774;52.034;5.342;2023-09-30T13:08:46;3.53;;;1.65;;
19280;SDS011;9774;52.034;5.342;2023-09-30T13:11:13;3.95;;;1.10;;
19280;SDS011;9774;52.034;5.342;2023-09-30T13:13:40;6.32;;;2.00;;
19280;SDS011;9774;52.034;5.342;2023-09-30T13:16:09;3.60;;;1.60;;
19280;SDS011;9774;52.034;5.342;2023-09-30T13:18:37;3.78;;;1.48;;
19280;SDS011;9774;52.034;5.342;2023-09-30T13:21:06;4.85;;;1.90;;
19280;SDS011;9774;52.034;5.342;2023-09-30T13:23:34;4.30;;;2.13;;
19280;SDS011;9774;52.034;5.342;2023-09-30T13:26:01;6.30;;;2.22;;
19280;SDS011;9774;52.034;5.342;2023-09-30T13:28:29;5.38;;;1.58;;
19280;SDS011;9774;52.034;5.342;2023-09-30T13:30:56;4.60;;;1.83;;
19280;SDS011;9774;52.034;5.342;2023-09-30T13:33:23;3.75;;;2.25;;
19280;SDS011;9774;52.034;5.342;2023-09-30T13:35:50;4.78;;;2.10;;
19280;SDS011;9774;52.034;5.342;2023-09-30T13:38:17;5.43;;;2.15;;
19280;SDS011;9774;52.034;5.342;2023-09-30T13:40:45;2.75;;;1.60;;
19280;SDS011;9774;52.034;5.342;2023-09-30T13:43:12;8.63;;;1.80;;
19280;SDS011;9774;52.034;5.342;2023-09-30T13:45:39;3.15;;;1.73;;
19280;SDS011;9774;52.034;5.342;2023-09-30T13:48:06;2.70;;;1.80;;
19280;SDS011;9774;52.034;5.342;2023-09-30T13:50:33;5.20;;;2.15;;
19280;SDS011;9774;52.034;5.342;2023-09-30T13:53:00;3.92;;;1.98;;
19280;SDS011;9774;52.034;5.342;2023-09-30T13:55:28;2.95;;;1.73;;
19280;SDS011;9774;52.034;5.342;2023-09-30T13:57:56;5.10;;;1.80;;
19280;SDS011;9774;52.034;5.342;2023-09-30T14:00:23;2.88;;;1.52;;
19280;SDS011;9774;52.034;5.342;2023-09-30T14:02:51;4.10;;;1.65;;
19280;SDS011;9774;52.034;5.342;2023-09-30T14:05:18;4.38;;;2.28;;
19280;SDS011;9774;52.034;5.342;2023-09-30T14:07:45;3.55;;;1.85;;
19280;SDS011;9774;52.034;5.342;2023-09-30T14:10:13;5.05;;;2.55;;
19280;SDS011;9774;52.034;5.342;2023-09-30T14:12:42;5.75;;;2.30;;
19280;SDS011;9774;52.034;5.342;2023-09-30T14:15:10;4.90;;;2.30;;
19280;SDS011;9774;52.034;5.342;2023-09-30T14:17:38;6.90;;;1.95;;
19280;SDS011;9774;52.034;5.342;2023-09-30T14:20:05;5.20;;;2.35;;
19280;SDS011;9774;52.034;5.342;2023-09-30T14:22:34;4.07;;;2.30;;
19280;SDS011;9774;52.034;5.342;2023-09-30T14:25:03;2.97;;;1.67;;
19280;SDS011;9774;52.034;5.342;2023-09-30T14:27:30;2.60;;;1.75;;
19280;SDS011;9774;52.034;5.342;2023-09-30T14:29:57;3.60;;;1.80;;
19280;SDS011;9774;52.034;5.342;2023-09-30T14:32:27;4.10;;;1.85;;
19280;SDS011;9774;52.034;5.342;2023-09-30T14:34:54;6.20;;;2.30;;
19280;SDS011;9774;52.034;5.342;2023-09-30T14:37:22;5.07;;;1.98;;
19280;SDS011;9774;52.034;5.342;2023-09-30T14:39:50;4.70;;;2.30;;
19280;SDS011;9774;52.034;5.342;2023-09-30T14:42:17;4.85;;;1.70;;
19280;SDS011;9774;52.034;5.342;2023-09-30T14:44:44;4.65;;;2.05;;
19280;SDS011;9774;52.034;5.342;2023-09-30T14:47:11;5.72;;;2.10;;
19280;SDS011;9774;52.034;5.342;2023-09-30T14:49:39;3.25;;;1.95;;
19280;SDS011;9774;52.034;5.342;2023-09-30T14:52:06;6.70;;;2.25;;
19280;SDS011;9774;52.034;5.342;2023-09-30T14:54:34;6.05;;;2.08;;
19280;SDS011;9774;52.034;5.342;2023-09-30T14:57:02;4.10;;;2.03;;
19280;SDS011;9774;52.034;5.342;2023-09-30T14:59:32;4.28;;;1.75;;
19280;SDS011;9774;52.034;5.342;2023-09-30T15:01:59;3.28;;;1.30;;
19280;SDS011;9774;52.034;5.342;2023-09-30T15:04:26;3.45;;;1.83;;
19280;SDS011;9774;52.034;5.342;2023-09-30T15:06:54;3.42;;;1.60;;
19280;SDS011;9774;52.034;5.342;2023-09-30T15:09:21;3.92;;;2.42;;
19280;SDS011;9774;52.034;5.342;2023-09-30T15:11:48;6.18;;;1.90;;
19280;SDS011;9774;52.034;5.342;2023-09-30T15:14:15;4.97;;;2.13;;
19280;SDS011;9774;52.034;5.342;2023-09-30T15:16:43;4.43;;;1.73;;